Time;durP1;ratioP1;P1;durP2;ratioP2;P2;SDS_P1;SDS_P2;PMS_P1;PMS_P2;Temp;Humidity;BMP_temperature;BMP_pressure;BME280_temperature;BME280_humidity;BME280_pressure;Samples;Min_cycle;Max_cycle;Signal;HPM_P1;HPM_P2
2021/07/27 00:01:07;;;;;;;21.20;15.10;;;18.00;99.90;;;;;;5050850;28;20213;-84
2021/07/27 00:03:33;;;;;;;20.38;14.27;;;18.00;99.90;;;;;;5048424;28;20953;-84
2021/07/27 00:06:00;;;;;;;26.13;15.85;;;17.90;99.90;;;;;;5047929;28;20206;-85
2021/07/27 00:08:27;;;;;;;23.15;17.23;;;17.90;99.90;;;;;;5050761;28;20210;-87
2021/07/27 00:10:54;;;;;;;22.85;15.65;;;17.90;99.90;;;;;;5051079;28;20237;-85
2021/07/27 00:13:22;;;;;;;21.70;16.42;;;17.90;99.90;;;;;;5051305;28;20201;-87
2021/07/27 00:15:50;;;;;;;22.10;16.20;;;17.90;99.90;;;;;;5049764;28;20206;-86
2021/07/27 00:18:17;;;;;;;21.58;15.73;;;17.90;99.90;;;;;;5048079;28;20699;-85
2021/07/27 00:20:45;;;;;;;20.95;15.85;;;17.90;99.90;;;;;;5046664;28;20205;-87
2021/07/27 00:23:12;;;;;;;15.77;13.75;;;17.90;99.90;;;;;;5032910;28;20636;-84
2021/07/27 00:25:39;;;;;;;20.77;14.93;;;17.90;99.90;;;;;;5050856;28;20198;-85
2021/07/27 00:28:06;;;;;;;20.17;15.55;;;17.90;99.90;;;;;;5050628;28;20252;-84
2021/07/27 00:30:33;;;;;;;17.88;14.00;;;17.90;99.90;;;;;;5053306;28;20206;-83
2021/07/27 00:33:01;;;;;;;19.20;15.10;;;17.80;99.90;;;;;;5051191;28;20256;-84
2021/07/27 00:35:29;;;;;;;16.00;12.88;;;17.80;99.90;;;;;;5051017;28;20209;-87
2021/07/27 00:38:08;;;;;;;15.13;11.95;;;17.80;99.90;;;;;;5051563;28;20202;-85
2021/07/27 00:40:35;;;;;;;15.93;13.15;;;17.80;99.90;;;;;;5049325;28;20267;-83
2021/07/27 00:43:04;;;;;;;15.10;12.73;;;17.80;99.90;;;;;;5049526;28;20229;-86
2021/07/27 00:45:31;;;;;;;15.73;12.82;;;17.80;99.90;;;;;;5049924;28;20592;-83
2021/07/27 00:47:58;;;;;;;16.60;13.07;;;17.80;99.90;;;;;;5049782;28;20220;-85
2021/07/27 00:50:27;;;;;;;14.48;11.68;;;17.80;99.90;;;;;;5049290;28;20190;-84
2021/07/27 00:52:56;;;;;;;19.83;13.98;;;17.80;99.90;;;;;;5049834;28;20204;-83
2021/07/27 00:55:23;;;;;;;21.60;15.25;;;17.80;99.90;;;;;;5062079;28;20220;-83
2021/07/27 00:57:50;;;;;;;20.45;15.75;;;17.80;99.90;;;;;;5068454;28;20296;-81
2021/07/27 01:00:17;;;;;;;16.00;12.68;;;17.80;99.90;;;;;;5069172;28;20193;-83
2021/07/27 01:02:44;;;;;;;16.75;14.48;;;17.80;99.90;;;;;;5068690;28;20232;-86
2021/07/27 01:05:11;;;;;;;23.88;18.85;;;17.80;99.90;;;;;;5062700;28;20201;-84
2021/07/27 01:07:41;;;;;;;27.73;22.30;;;17.80;99.90;;;;;;5070477;28;20200;-84
2021/07/27 01:10:09;;;;;;;26.90;21.27;;;17.80;99.90;;;;;;5070177;28;20255;-84
2021/07/27 01:12:37;;;;;;;24.27;18.85;;;17.80;99.90;;;;;;5069194;28;20201;-85
2021/07/27 01:15:07;;;;;;;22.23;18.48;;;17.80;99.90;;;;;;5051614;28;20602;-84
2021/07/27 01:17:34;;;;;;;22.02;17.88;;;17.80;99.90;;;;;;5046042;28;20197;-84
2021/07/27 01:20:05;;;;;;;25.05;18.58;;;17.80;99.90;;;;;;5045896;28;20206;-83
2021/07/27 01:39:18;;;;;;;24.58;19.95;;;17.70;99.90;;;;;;5050323;28;20316;-90
2021/07/27 01:44:29;;;;;;;24.52;19.50;;;17.60;99.90;;;;;;5050696;28;20205;-86
2021/07/27 01:46:56;;;;;;;23.02;18.70;;;17.60;99.90;;;;;;5049712;28;20537;-87
2021/07/27 01:49:23;;;;;;;23.42;18.67;;;17.60;99.90;;;;;;5061072;28;20577;-86
2021/07/27 01:51:52;;;;;;;27.38;20.40;;;17.60;99.90;;;;;;5070303;28;20204;-87
2021/07/27 01:54:28;;;;;;;23.58;18.45;;;17.60;99.90;;;;;;5069696;28;20208;-88
2021/07/27 01:56:55;;;;;;;29.70;21.50;;;17.60;99.90;;;;;;5065990;28;20201;-87
2021/07/27 01:59:22;;;;;;;22.88;18.13;;;17.60;99.90;;;;;;5049202;28;20246;-86
2021/07/27 02:01:49;;;;;;;29.73;21.90;;;17.60;99.90;;;;;;5048385;28;20234;-86
2021/07/27 02:04:16;;;;;;;27.33;20.70;;;17.60;99.90;;;;;;5050026;28;20791;-87
2021/07/27 02:06:42;;;;;;;25.73;22.27;;;17.60;99.90;;;;;;5066179;28;20197;-86
2021/07/27 02:09:09;;;;;;;30.58;22.85;;;17.60;99.90;;;;;;5070282;28;20208;-86
2021/07/27 02:11:41;;;;;;;28.65;21.38;;;17.70;99.90;;;;;;5050015;28;20201;-88
2021/07/27 02:14:11;;;;;;;31.30;22.48;;;17.60;99.90;;;;;;5050831;28;20202;-89
2021/07/27 02:16:38;;;;;;;29.10;22.60;;;17.60;99.90;;;;;;5032401;28;20229;-85
2021/07/27 02:19:05;;;;;;;36.25;23.55;;;17.60;99.90;;;;;;5050599;28;20594;-87
2021/07/27 02:21:32;;;;;;;30.10;22.77;;;17.60;99.90;;;;;;5051843;28;20213;-88
2021/07/27 02:24:00;;;;;;;28.73;22.08;;;17.60;99.90;;;;;;5051951;28;20213;-87
2021/07/27 02:26:27;;;;;;;37.03;23.98;;;17.60;99.90;;;;;;5050996;28;20201;-84
2021/07/27 02:28:55;;;;;;;29.10;22.58;;;17.60;99.90;;;;;;5052065;28;20205;-88
2021/07/27 02:31:27;;;;;;;30.83;23.30;;;17.60;99.90;;;;;;5049839;28;20677;-88
2021/07/27 02:33:55;;;;;;;32.28;24.60;;;17.60;99.90;;;;;;5046388;28;20216;-88
2021/07/27 02:36:21;;;;;;;32.15;23.50;;;17.50;99.90;;;;;;5048188;28;20740;-82
2021/07/27 02:38:49;;;;;;;32.38;23.38;;;17.50;99.90;;;;;;5032050;28;20560;-80
2021/07/27 02:41:30;;;;;;;31.98;23.50;;;17.50;99.90;;;;;;5026692;28;20272;-81
2021/07/27 02:43:58;;;;;;;33.83;23.90;;;17.50;99.90;;;;;;5027022;28;20214;-80
2021/07/27 02:46:25;;;;;;;29.00;22.52;;;17.40;99.90;;;;;;5026852;28;20202;-83
2021/07/27 02:49:00;;;;;;;30.05;22.42;;;17.40;99.90;;;;;;5026891;28;20310;-80
2021/07/27 02:51:27;;;;;;;30.90;23.60;;;17.40;99.90;;;;;;5025300;28;20198;-82
2021/07/27 02:53:54;;;;;;;28.30;22.10;;;17.40;99.90;;;;;;5026362;28;20202;-81
2021/07/27 02:56:21;;;;;;;33.72;23.80;;;17.40;99.90;;;;;;5027239;28;20195;-87
2021/07/27 02:58:47;;;;;;;39.10;27.15;;;17.40;99.90;;;;;;5025858;28;20237;-81
2021/07/27 03:01:16;;;;;;;34.50;24.63;;;17.40;99.90;;;;;;5025393;28;20595;-82
2021/07/27 03:03:42;;;;;;;40.65;26.67;;;17.40;99.90;;;;;;5029262;28;20244;-88
2021/07/27 03:06:12;;;;;;;33.63;24.88;;;17.40;99.90;;;;;;5033146;28;20202;-83
2021/07/27 03:09:02;;;;;;;33.78;23.83;;;17.40;99.90;;;;;;5034155;28;20199;-88
2021/07/27 03:11:29;;;;;;;45.50;30.48;;;17.40;99.90;;;;;;5052550;28;20309;-89
2021/07/27 03:13:56;;;;;;;43.53;29.40;;;17.30;99.90;;;;;;5054588;28;20194;-82
2021/07/27 03:16:26;;;;;;;42.47;31.30;;;17.30;99.90;;;;;;5053229;28;20212;-88
2021/07/27 03:18:53;;;;;;;51.60;35.10;;;17.40;99.90;;;;;;5054481;28;20360;-90
2021/07/27 03:21:21;;;;;;;56.60;35.67;;;17.40;99.90;;;;;;5053258;28;20233;-86
2021/07/27 03:23:48;;;;;;;45.67;32.72;;;17.40;99.90;;;;;;5051918;28;20554;-88
2021/07/27 03:26:17;;;;;;;60.92;37.78;;;17.30;99.90;;;;;;5053354;28;20664;-89
2021/07/27 03:28:44;;;;;;;59.63;37.72;;;17.40;99.90;;;;;;5052965;28;20198;-89
2021/07/27 03:31:11;;;;;;;57.40;36.53;;;17.40;99.90;;;;;;5052939;28;20237;-82
2021/07/27 03:33:39;;;;;;;58.08;37.47;;;17.30;99.90;;;;;;5049722;28;20194;-85
2021/07/27 03:36:06;;;;;;;53.17;34.70;;;17.40;99.90;;;;;;5062488;28;20202;-89
2021/07/27 03:38:32;;;;;;;62.53;39.10;;;17.30;99.90;;;;;;5060812;28;20213;-87
2021/07/27 03:41:04;;;;;;;64.70;39.53;;;17.30;99.90;;;;;;5060039;28;20185;-88
2021/07/27 03:43:32;;;;;;;70.30;41.78;;;17.30;99.90;;;;;;5077786;28;20225;-89
2021/07/27 03:45:58;;;;;;;69.35;41.58;;;17.30;99.90;;;;;;5076604;28;20601;-87
2021/07/27 03:48:26;;;;;;;79.57;44.50;;;17.30;99.90;;;;;;5074921;28;20202;-87
2021/07/27 03:50:54;;;;;;;83.55;45.25;;;17.30;99.90;;;;;;5073078;28;20209;-86
2021/07/27 03:53:22;;;;;;;77.40;44.08;;;17.30;99.90;;;;;;5065148;28;20212;-86
2021/07/27 03:55:49;;;;;;;68.93;42.47;;;17.30;99.90;;;;;;5053219;28;20613;-83
2021/07/27 03:58:16;;;;;;;79.88;46.42;;;17.30;99.90;;;;;;5053448;28;20229;-90
2021/07/27 04:00:42;;;;;;;64.85;39.67;;;17.30;99.90;;;;;;5054855;28;20209;-90
2021/07/27 04:03:09;;;;;;;83.90;48.13;;;17.30;99.90;;;;;;5074562;28;20228;-90
2021/07/27 04:05:36;;;;;;;84.75;47.63;;;17.30;99.90;;;;;;5060570;28;20213;-90
2021/07/27 04:08:05;;;;;;;86.95;48.50;;;17.30;99.90;;;;;;5053688;28;20209;-83
2021/07/27 04:10:32;;;;;;;73.95;43.55;;;17.30;99.90;;;;;;5054058;28;20244;-90
2021/07/27 04:12:59;;;;;;;81.50;47.13;;;17.30;99.90;;;;;;5063352;28;20243;-82
2021/07/27 04:15:47;;;;;;;76.93;44.40;;;17.20;99.90;;;;;;5064037;28;20178;-85
2021/07/27 04:18:15;;;;;;;71.15;41.40;;;17.30;99.90;;;;;;5058792;28;20212;-88
2021/07/27 04:20:42;;;;;;;87.47;48.40;;;17.20;99.90;;;;;;5059940;28;20395;-89
2021/07/27 04:23:10;;;;;;;79.88;45.75;;;17.20;99.90;;;;;;5058603;28;20229;-85
2021/07/27 04:25:38;;;;;;;74.00;45.13;;;17.30;99.90;;;;;;5053174;28;20222;-81
2021/07/27 04:28:05;;;;;;;82.03;47.20;;;17.30;99.90;;;;;;5053469;28;20198;-91
2021/07/27 04:30:34;;;;;;;89.03;49.85;;;17.30;99.90;;;;;;5051352;28;20205;-90
2021/07/27 04:33:01;;;;;;;84.03;47.08;;;17.30;99.90;;;;;;5051308;28;20217;-91
2021/07/27 04:35:27;;;;;;;74.45;48.63;;;17.30;99.90;;;;;;5052542;28;20194;-91
2021/07/27 04:37:58;;;;;;;79.90;48.45;;;17.30;99.90;;;;;;5051845;28;20225;-81
2021/07/27 04:40:26;;;;;;;89.20;52.33;;;17.30;99.90;;;;;;5049351;28;20206;-88
2021/07/27 04:42:53;;;;;;;84.97;51.75;;;17.40;99.90;;;;;;5050501;28;20225;-86
2021/07/27 04:45:19;;;;;;;81.00;48.38;;;17.40;99.90;;;;;;5051005;28;20218;-91
2021/07/27 04:47:46;;;;;;;85.93;48.95;;;17.40;99.90;;;;;;5050733;28;20875;-83
2021/07/27 04:50:13;;;;;;;87.63;51.95;;;17.40;99.90;;;;;;5048616;28;20217;-82
2021/07/27 04:52:49;;;;;;;90.07;50.97;;;17.40;99.90;;;;;;5047982;28;20740;-81
2021/07/27 04:55:16;;;;;;;88.43;51.25;;;17.50;99.90;;;;;;5048943;28;20243;-82
2021/07/27 04:57:44;;;;;;;73.40;45.15;;;17.40;99.90;;;;;;5063911;28;20217;-83
2021/07/27 05:00:17;;;;;;;83.30;49.53;;;17.50;99.90;;;;;;5056602;28;20206;-82
2021/07/27 05:02:44;;;;;;;75.03;47.97;;;17.50;99.90;;;;;;5051745;28;20224;-82
2021/07/27 05:05:11;;;;;;;83.78;51.28;;;17.50;99.90;;;;;;5049726;28;20194;-80
2021/07/27 05:07:38;;;;;;;80.60;48.95;;;17.50;99.90;;;;;;5061413;28;20221;-91
2021/07/27 05:10:05;;;;;;;83.80;51.17;;;17.60;99.90;;;;;;5070853;28;20233;-89
2021/07/27 05:12:32;;;;;;;81.57;49.60;;;17.60;99.90;;;;;;5066696;28;20212;-82
2021/07/27 05:15:00;;;;;;;78.18;50.03;;;17.60;99.90;;;;;;5068360;28;20197;-84
2021/07/27 05:17:27;;;;;;;76.07;46.17;;;17.70;99.90;;;;;;5068151;28;20604;-82
2021/07/27 05:19:54;;;;;;;81.80;48.03;;;17.70;99.90;;;;;;5067968;28;20552;-80
2021/07/27 05:22:23;;;;;;;67.85;44.38;;;17.70;99.90;;;;;;5055739;28;20209;-85
2021/07/27 05:24:50;;;;;;;71.43;45.47;;;17.70;99.90;;;;;;5047873;28;20226;-89
2021/07/27 05:27:17;;;;;;;69.95;44.88;;;17.70;99.90;;;;;;5054772;28;20204;-81
2021/07/27 05:29:43;;;;;;;68.07;44.42;;;17.80;99.90;;;;;;5067165;28;20213;-90
2021/07/27 05:32:11;;;;;;;62.55;41.30;;;17.80;99.90;;;;;;5068487;28;20201;-91
2021/07/27 05:34:38;;;;;;;69.72;43.08;;;17.80;99.90;;;;;;5069064;28;20197;-87
2021/07/27 05:37:05;;;;;;;70.90;43.80;;;17.80;99.90;;;;;;5068555;28;20581;-88
2021/07/27 05:39:32;;;;;;;73.15;45.05;;;17.90;99.90;;;;;;5067427;28;20597;-84
2021/07/27 05:41:59;;;;;;;73.00;46.90;;;17.90;99.90;;;;;;5068831;28;21039;-83
2021/07/27 05:44:26;;;;;;;62.53;42.08;;;17.90;99.90;;;;;;5063903;28;20240;-88
2021/07/27 05:46:54;;;;;;;62.67;43.20;;;18.00;99.90;;;;;;5049348;28;20210;-81
2021/07/27 05:49:22;;;;;;;65.57;45.67;;;18.00;99.90;;;;;;5049085;28;20672;-91
2021/07/27 05:51:50;;;;;;;66.85;45.78;;;18.00;99.90;;;;;;5048748;28;20221;-89
2021/07/27 05:54:18;;;;;;;57.35;41.35;;;18.00;99.90;;;;;;5048070;28;20205;-82
2021/07/27 05:56:45;;;;;;;58.92;43.17;;;18.00;99.90;;;;;;5059164;28;20664;-84
2021/07/27 05:59:12;;;;;;;64.90;43.88;;;18.10;99.90;;;;;;5059941;28;20205;-80
2021/07/27 06:01:39;;;;;;;64.30;47.28;;;18.10;99.90;;;;;;5045607;28;20209;-82
2021/07/27 06:04:06;;;;;;;61.08;42.95;;;18.10;99.90;;;;;;5046662;28;20221;-80
2021/07/27 06:06:34;;;;;;;61.80;42.75;;;18.10;99.90;;;;;;5045185;28;20201;-80
2021/07/27 06:09:03;;;;;;;60.22;42.72;;;18.10;99.90;;;;;;5045618;28;20212;-83
2021/07/27 06:11:31;;;;;;;54.22;41.63;;;18.10;99.90;;;;;;5043890;28;20610;-83
2021/07/27 06:13:58;;;;;;;53.83;41.20;;;18.20;99.90;;;;;;5046172;28;20202;-81
2021/07/27 06:16:25;;;;;;;57.28;44.08;;;18.20;99.90;;;;;;5047821;28;20559;-82
2021/07/27 06:18:51;;;;;;;54.75;42.15;;;18.20;99.90;;;;;;5063611;28;20194;-80
2021/07/27 06:21:18;;;;;;;57.40;44.17;;;18.20;99.90;;;;;;5046804;28;20221;-89
2021/07/27 06:23:47;;;;;;;53.15;42.95;;;18.20;99.90;;;;;;5047970;28;20221;-87
2021/07/27 06:26:14;;;;;;;53.15;41.30;;;18.20;99.90;;;;;;5047263;28;20217;-86
2021/07/27 06:28:42;;;;;;;54.65;41.70;;;18.20;99.90;;;;;;5057808;22;20296;-89
2021/07/27 06:31:12;;;;;;;51.50;42.13;;;18.20;99.90;;;;;;5049684;28;20252;-82
2021/07/27 06:33:39;;;;;;;52.30;41.05;;;18.20;99.90;;;;;;5048201;28;20205;-88
2021/07/27 06:36:06;;;;;;;50.00;40.35;;;18.20;99.90;;;;;;5046434;28;20221;-82
2021/07/27 06:38:33;;;;;;;46.58;37.35;;;18.20;99.90;;;;;;5044958;28;20226;-86
2021/07/27 06:41:02;;;;;;;46.08;37.70;;;18.20;99.90;;;;;;5049781;28;20209;-82
2021/07/27 06:43:29;;;;;;;53.28;39.13;;;18.20;99.90;;;;;;5058957;28;20244;-82
2021/07/27 06:45:56;;;;;;;48.65;37.53;;;18.20;99.90;;;;;;5070345;28;20201;-87
2021/07/27 06:48:24;;;;;;;38.40;34.13;;;18.20;99.90;;;;;;5070336;28;20203;-84
2021/07/27 06:50:52;;;;;;;41.30;34.85;;;18.20;99.90;;;;;;5059834;28;20263;-83
2021/07/27 06:53:19;;;;;;;40.40;33.10;;;18.30;99.90;;;;;;5048152;28;20202;-89
2021/07/27 06:55:46;;;;;;;42.90;35.58;;;18.30;99.90;;;;;;5048088;28;20221;-84
2021/07/27 06:58:15;;;;;;;39.35;33.40;;;18.40;99.90;;;;;;5049356;28;20205;-84
2021/07/27 07:00:42;;;;;;;44.70;35.20;;;18.50;99.90;;;;;;5047829;28;20201;-81
2021/07/27 07:03:09;;;;;;;38.28;32.30;;;18.50;99.90;;;;;;5048949;28;20661;-82
2021/07/27 07:05:37;;;;;;;36.95;32.25;;;18.50;99.90;;;;;;5049569;28;20608;-82
2021/07/27 07:08:04;;;;;;;43.92;36.67;;;18.50;99.90;;;;;;5049670;28;20205;-84
2021/07/27 07:11:30;;;;;;;40.05;32.47;;;18.60;99.90;;;;;;5044037;28;20293;-86
2021/07/27 07:13:58;;;;;;;37.83;32.83;;;18.70;99.90;;;;;;5050490;28;20198;-83
2021/07/27 07:16:25;;;;;;;36.22;32.25;;;18.90;99.90;;;;;;5048770;28;20621;-84
2021/07/27 07:18:52;;;;;;;36.95;31.27;;;18.90;99.90;;;;;;5050454;28;20201;-81
2021/07/27 07:21:19;;;;;;;33.10;29.50;;;19.00;99.90;;;;;;5048525;28;20202;-83
2021/07/27 07:23:46;;;;;;;34.35;29.55;;;18.90;99.90;;;;;;5048128;28;20423;-85
2021/07/27 07:26:12;;;;;;;34.42;29.25;;;19.00;99.90;;;;;;5051243;28;20508;-85
2021/07/27 07:28:39;;;;;;;37.80;31.58;;;19.00;99.90;;;;;;5042653;28;20194;-80
2021/07/27 07:31:12;;;;;;;33.13;29.55;;;19.00;99.90;;;;;;5047019;28;20209;-83
2021/07/27 07:33:40;;;;;;;33.63;29.63;;;19.10;99.90;;;;;;5046650;28;20526;-80
2021/07/27 07:36:11;;;;;;;31.85;28.27;;;19.10;99.90;;;;;;5049656;28;20282;-83
2021/07/27 07:38:38;;;;;;;31.50;28.15;;;19.20;99.90;;;;;;5051870;28;20206;-87
2021/07/27 07:41:07;;;;;;;32.17;28.90;;;19.30;99.90;;;;;;5061440;28;20193;-87
2021/07/27 07:43:34;;;;;;;31.27;27.25;;;19.30;99.90;;;;;;5074697;28;20633;-83
2021/07/27 07:46:01;;;;;;;34.55;29.98;;;19.30;99.90;;;;;;5068139;28;20236;-81
2021/07/27 07:48:29;;;;;;;33.22;27.55;;;19.20;99.90;;;;;;5065660;28;20212;-80
2021/07/27 07:50:56;;;;;;;31.10;27.83;;;19.30;99.90;;;;;;5045586;28;20209;-82
2021/07/27 07:53:23;;;;;;;29.58;25.92;;;19.30;99.90;;;;;;5047115;28;20201;-84
2021/07/27 07:55:49;;;;;;;31.08;26.60;;;19.30;99.90;;;;;;5046476;28;20202;-80
2021/07/27 07:58:16;;;;;;;27.27;24.17;;;19.30;99.90;;;;;;5045938;28;20221;-86
2021/07/27 08:00:43;;;;;;;26.20;23.40;;;19.30;99.90;;;;;;5046651;28;20202;-80
2021/07/27 08:03:10;;;;;;;25.25;22.55;;;19.40;99.90;;;;;;5047001;28;20633;-81
2021/07/27 08:05:38;;;;;;;29.33;26.20;;;19.40;99.90;;;;;;5045808;28;20882;-80
2021/07/27 08:08:06;;;;;;;30.23;26.95;;;19.50;99.90;;;;;;5046649;28;20907;-80
2021/07/27 08:10:33;;;;;;;29.20;25.42;;;19.50;99.90;;;;;;5049275;28;20209;-81
2021/07/27 08:13:00;;;;;;;28.13;25.17;;;19.50;99.90;;;;;;5067743;28;20208;-80
2021/07/27 08:15:27;;;;;;;23.98;21.50;;;19.50;99.90;;;;;;5066590;28;20256;-80
2021/07/27 08:17:54;;;;;;;22.83;20.42;;;19.60;99.90;;;;;;5065466;28;20201;-80
2021/07/27 08:20:22;;;;;;;29.75;26.42;;;19.70;99.90;;;;;;5064408;28;20204;-80
2021/07/27 08:22:50;;;;;;;32.95;27.38;;;19.70;99.90;;;;;;5045751;28;20312;-81
2021/07/27 08:25:18;;;;;;;27.35;24.38;;;19.70;99.90;;;;;;5045013;28;20225;-83
2021/07/27 08:27:46;;;;;;;30.45;26.95;;;19.70;99.90;;;;;;5045659;28;20291;-79
2021/07/27 08:30:14;;;;;;;30.55;27.20;;;19.80;99.90;;;;;;5046433;28;20230;-80
2021/07/27 08:32:46;;;;;;;29.33;26.33;;;19.90;99.90;;;;;;5045055;28;20198;-80
2021/07/27 08:35:13;;;;;;;26.65;23.95;;;20.00;99.90;;;;;;5046749;28;20566;-83
2021/07/27 08:37:40;;;;;;;29.10;25.98;;;20.20;99.90;;;;;;5045617;28;20187;-79
2021/07/27 08:40:10;;;;;;;29.58;26.38;;;20.40;99.90;;;;;;5045195;28;20201;-80
2021/07/27 08:42:39;;;;;;;28.70;25.05;;;20.50;99.90;;;;;;5045774;28;20210;-82
2021/07/27 08:45:07;;;;;;;28.95;25.70;;;20.60;99.90;;;;;;5046918;28;20242;-82
2021/07/27 08:47:35;;;;;;;27.17;24.30;;;20.60;99.90;;;;;;5045282;28;20237;-79
2021/07/27 08:50:02;;;;;;;27.40;24.63;;;20.70;99.90;;;;;;5046575;28;20209;-81
2021/07/27 08:52:29;;;;;;;25.33;22.73;;;20.80;99.90;;;;;;5048127;28;20470;-79
2021/07/27 08:54:56;;;;;;;28.88;23.20;;;20.70;99.90;;;;;;5047325;28;20605;-79
2021/07/27 08:57:25;;;;;;;24.10;20.52;;;20.60;99.90;;;;;;5048994;28;20198;-80
2021/07/27 08:59:53;;;;;;;23.05;20.35;;;20.70;99.90;;;;;;5049197;28;20198;-79
2021/07/27 09:02:27;;;;;;;24.88;22.10;;;20.60;99.90;;;;;;5058409;28;20205;-84
2021/07/27 09:05:08;;;;;;;31.55;23.90;;;20.60;99.90;;;;;;5075006;28;20217;-81
2021/07/27 09:07:35;;;;;;;25.05;21.73;;;20.60;99.90;;;;;;5074416;28;20204;-82
2021/07/27 09:10:12;;;;;;;24.83;22.13;;;20.80;99.90;;;;;;5075419;28;20490;-92
2021/07/27 09:12:56;;;;;;;27.63;22.13;;;21.10;99.90;;;;;;5079067;28;20197;-81
2021/07/27 09:15:24;;;;;;;26.13;22.08;;;21.30;99.90;;;;;;5085607;28;20209;-80
2021/07/27 09:17:53;;;;;;;30.38;25.45;;;21.50;99.90;;;;;;5069233;28;20208;-82
2021/07/27 09:20:42;;;;;;;26.08;22.23;;;21.60;99.90;;;;;;5072151;28;20502;-84
2021/07/27 09:23:18;;;;;;;23.42;20.92;;;21.70;99.90;;;;;;5078255;28;20207;-90
2021/07/27 09:25:47;;;;;;;30.85;25.42;;;21.70;99.90;;;;;;5058084;28;20221;-87
2021/07/27 09:28:15;;;;;;;29.50;23.15;;;21.70;99.90;;;;;;5049718;28;20206;-79
2021/07/27 09:30:43;;;;;;;28.83;23.98;;;21.70;99.90;;;;;;5048836;28;20237;-88
2021/07/27 09:33:11;;;;;;;26.13;23.27;;;21.70;99.90;;;;;;5050487;28;20209;-95
2021/07/27 09:35:40;;;;;;;26.48;20.70;;;21.70;99.90;;;;;;5052612;28;20589;-86
2021/07/27 09:38:09;;;;;;;23.10;19.25;;;21.70;99.90;;;;;;5047524;28;20668;-80
2021/07/27 09:40:37;;;;;;;21.38;19.17;;;21.60;99.90;;;;;;5046760;28;20202;-88
2021/07/27 09:43:05;;;;;;;27.42;20.95;;;21.70;99.90;;;;;;5048091;28;20213;-84
2021/07/27 09:45:34;;;;;;;28.45;23.17;;;21.70;99.90;;;;;;5045748;28;20226;-80
2021/07/27 09:48:02;;;;;;;25.20;20.55;;;21.70;99.90;;;;;;5050030;28;20539;-82
2021/07/27 09:50:29;;;;;;;25.13;20.60;;;21.50;99.90;;;;;;5046807;28;20194;-81
2021/07/27 09:52:59;;;;;;;25.90;19.92;;;21.50;99.90;;;;;;5045958;28;20208;-79
2021/07/27 09:55:27;;;;;;;24.25;18.52;;;21.30;99.90;;;;;;5050141;28;20216;-80
2021/07/27 09:57:54;;;;;;;24.40;18.88;;;21.40;99.90;;;;;;5063474;28;20266;-80
2021/07/27 10:00:25;;;;;;;24.42;18.08;;;21.50;99.90;;;;;;5055466;28;20194;-94
2021/07/27 10:02:54;;;;;;;23.77;19.42;;;21.50;99.90;;;;;;5048384;28;20230;-80
2021/07/27 10:05:23;;;;;;;19.55;16.95;;;21.50;99.90;;;;;;5046518;28;20222;-81
2021/07/27 10:07:54;;;;;;;21.10;17.58;;;21.60;99.90;;;;;;5052636;28;20220;-79
2021/07/27 10:10:34;;;;;;;20.58;17.15;;;21.70;99.90;;;;;;5067454;28;20204;-79
2021/07/27 10:13:09;;;;;;;22.90;18.70;;;21.70;99.90;;;;;;5065185;28;20290;-81
2021/07/27 10:15:47;;;;;;;22.65;18.88;;;21.80;99.90;;;;;;5048169;28;20251;-80
2021/07/27 10:18:15;;;;;;;19.50;15.93;;;21.90;99.90;;;;;;5045042;28;20797;-79
2021/07/27 10:20:45;;;;;;;20.60;16.92;;;21.90;99.90;;;;;;5045245;28;20198;-93
2021/07/27 10:23:17;;;;;;;23.98;19.55;;;22.10;99.90;;;;;;5046586;28;20599;-89
2021/07/27 10:25:58;;;;;;;25.10;19.73;;;22.00;99.90;;;;;;5045259;28;20780;-89
2021/07/27 10:28:26;;;;;;;24.35;18.98;;;22.00;99.90;;;;;;5047998;28;20205;-94
2021/07/27 10:31:07;;;;;;;21.20;17.23;;;21.90;99.90;;;;;;5045630;28;20652;-83
2021/07/27 10:33:36;;;;;;;23.05;17.48;;;21.70;99.90;;;;;;5045297;28;20629;-90
2021/07/27 10:36:04;;;;;;;19.67;15.52;;;21.60;99.90;;;;;;5047526;28;20281;-82
2021/07/27 10:38:39;;;;;;;21.83;17.30;;;21.50;99.90;;;;;;5046409;28;20208;-84
2021/07/27 10:41:19;;;;;;;20.77;18.25;;;21.50;99.90;;;;;;5050876;28;20590;-90
2021/07/27 10:43:46;;;;;;;22.00;17.85;;;21.40;99.90;;;;;;5047896;28;20225;-88
2021/07/27 10:46:13;;;;;;;22.17;17.63;;;21.30;99.90;;;;;;5051401;28;20222;-94
2021/07/27 10:48:42;;;;;;;24.30;21.15;;;21.20;99.90;;;;;;5050673;28;20593;-86
2021/07/27 10:51:10;;;;;;;20.05;17.05;;;21.10;99.90;;;;;;5051205;28;20598;-83
2021/07/27 10:53:37;;;;;;;19.80;16.95;;;21.00;99.90;;;;;;5048774;28;20210;-84
2021/07/27 10:56:07;;;;;;;30.60;21.88;;;20.90;99.90;;;;;;5052713;28;20624;-87
2021/07/27 10:58:36;;;;;;;34.63;20.30;;;20.80;99.90;;;;;;5050044;28;20248;-88
2021/07/27 11:01:10;;;;;;;16.80;12.80;;;20.70;99.90;;;;;;5050183;28;20209;-87
2021/07/27 11:03:37;;;;;;;11.05;9.43;;;20.50;99.90;;;;;;5047587;28;20221;-83
2021/07/27 11:06:05;;;;;;;8.80;6.55;;;20.30;99.90;;;;;;5047998;28;20217;-85
2021/07/27 11:08:33;;;;;;;6.63;5.93;;;20.20;99.90;;;;;;5047224;28;20202;-84
2021/07/27 11:11:07;;;;;;;7.55;5.85;;;20.10;99.90;;;;;;5047946;28;20614;-84
2021/07/27 11:13:34;;;;;;;5.88;5.15;;;20.00;99.90;;;;;;5058450;28;20208;-87
2021/07/27 11:16:01;;;;;;;7.43;6.13;;;20.00;99.90;;;;;;5051846;28;20327;-86
2021/07/27 11:18:29;;;;;;;13.23;9.52;;;20.10;99.90;;;;;;5067942;28;20205;-85
2021/07/27 11:20:56;;;;;;;12.30;10.98;;;20.10;99.90;;;;;;5070668;28;20197;-86
2021/07/27 11:23:26;;;;;;;14.00;10.90;;;20.30;99.90;;;;;;5070122;28;20229;-85
2021/07/27 11:25:56;;;;;;;18.50;14.13;;;20.40;99.90;;;;;;5070986;28;20653;-85
2021/07/27 11:28:22;;;;;;;22.98;15.80;;;20.50;99.90;;;;;;5063198;28;20222;-83
2021/07/27 11:30:49;;;;;;;23.42;14.45;;;20.60;99.90;;;;;;5052542;28;20220;-86
2021/07/27 11:33:18;;;;;;;23.17;15.38;;;20.80;99.90;;;;;;5072863;28;20200;-88
2021/07/27 11:35:47;;;;;;;23.60;18.15;;;21.00;99.90;;;;;;5071432;28;20283;-87
2021/07/27 11:38:21;;;;;;;24.52;17.73;;;21.10;99.90;;;;;;5072321;28;20212;-88
2021/07/27 11:40:50;;;;;;;21.35;15.80;;;21.20;99.90;;;;;;5068451;28;20201;-83
2021/07/27 11:43:19;;;;;;;20.45;14.60;;;21.30;99.90;;;;;;5049440;28;20385;-84
2021/07/27 11:45:47;;;;;;;23.17;13.48;;;21.40;99.90;;;;;;5049618;28;20229;-84
2021/07/27 11:48:14;;;;;;;22.80;15.23;;;21.60;99.90;;;;;;5049890;28;20205;-81
2021/07/27 11:50:42;;;;;;;24.10;15.68;;;21.60;99.90;;;;;;5049705;28;21081;-85
2021/07/27 11:53:10;;;;;;;19.60;15.30;;;21.70;99.90;;;;;;5050410;28;20194;-81
2021/07/27 11:55:39;;;;;;;20.17;14.95;;;21.80;99.90;;;;;;5047921;28;20206;-84
2021/07/27 11:58:08;;;;;;;17.65;13.80;;;21.90;99.90;;;;;;5048829;28;20248;-84
2021/07/27 12:00:37;;;;;;;16.23;13.07;;;22.00;99.90;;;;;;5048255;28;20209;-83
2021/07/27 12:03:06;;;;;;;18.00;12.95;;;22.00;99.90;;;;;;5046743;28;20428;-79
2021/07/27 12:05:33;;;;;;;19.20;14.25;;;21.90;99.90;;;;;;5056815;28;20228;-82
2021/07/27 12:08:02;;;;;;;15.90;11.23;;;21.90;99.90;;;;;;5067948;28;20197;-81
2021/07/27 12:10:29;;;;;;;13.73;10.07;;;22.00;99.90;;;;;;5064978;28;20904;-79
2021/07/27 12:12:55;;;;;;;10.88;8.77;;;22.00;99.90;;;;;;5065233;28;20201;-79
2021/07/27 12:15:24;;;;;;;13.98;8.98;;;22.10;99.90;;;;;;5047185;28;20206;-80
2021/07/27 12:17:52;;;;;;;10.32;7.35;;;22.10;99.90;;;;;;5045659;28;20206;-85
2021/07/27 12:20:19;;;;;;;13.27;7.75;;;22.10;99.90;;;;;;5046386;28;20313;-79
2021/07/27 12:22:46;;;;;;;9.75;6.85;;;22.10;99.90;;;;;;5048004;28;20210;-83
2021/07/27 12:25:14;;;;;;;7.90;6.32;;;22.10;99.90;;;;;;5048738;28;20217;-79
2021/07/27 12:27:42;;;;;;;13.55;5.80;;;22.10;99.90;;;;;;5049121;28;20547;-81
2021/07/27 12:30:09;;;;;;;8.00;5.13;;;22.00;99.90;;;;;;5049849;28;20344;-83
2021/07/27 12:32:38;;;;;;;11.65;5.22;;;22.00;99.90;;;;;;5047865;28;20248;-84
2021/07/27 12:35:06;;;;;;;9.43;5.07;;;22.10;99.90;;;;;;5056908;28;20927;-86
2021/07/27 12:37:35;;;;;;;8.15;5.30;;;22.20;99.90;;;;;;5062816;28;20213;-87
2021/07/27 12:40:02;;;;;;;9.45;5.10;;;22.30;99.90;;;;;;5054328;28;20237;-86
2021/07/27 12:42:29;;;;;;;8.95;4.57;;;22.30;99.90;;;;;;5052855;28;20320;-82
2021/07/27 12:44:56;;;;;;;9.57;3.97;;;22.30;99.90;;;;;;5052842;28;20194;-85
2021/07/27 12:47:22;;;;;;;8.18;4.32;;;22.40;99.90;;;;;;5050668;28;20190;-89
2021/07/27 12:49:51;;;;;;;10.13;4.68;;;22.60;99.90;;;;;;5054575;28;20297;-83
2021/07/27 12:52:17;;;;;;;8.73;4.18;;;23.00;99.90;;;;;;5049715;28;20226;-87
2021/07/27 12:54:44;;;;;;;4.40;3.17;;;23.30;99.90;;;;;;5050133;28;20260;-80